createdAt,value
2022-08-28T00:01:46.149Z,42.10
2022-08-28T00:04:36.468Z,42.07
2022-08-28T00:07:22.655Z,42.19
2022-08-28T00:10:10.620Z,42.25
2022-08-28T00:12:57.541Z,42.34
2022-08-28T00:15:43.749Z,42.41
2022-08-28T00:18:31.450Z,42.38
2022-08-28T00:21:17.403Z,42.42
2022-08-28T00:24:03.704Z,42.58
2022-08-28T00:27:08.272Z,42.36
2022-08-28T00:29:54.443Z,42.43
2022-08-28T00:32:40.531Z,42.63
2022-08-28T00:35:26.774Z,42.64
2022-08-28T00:38:13.698Z,42.65
2022-08-28T00:41:03.827Z,42.65
2022-08-28T00:43:50.643Z,42.65
2022-08-28T00:46:39.169Z,42.70
2022-08-28T00:49:29.510Z,42.82
2022-08-28T00:52:16.198Z,42.81
2022-08-28T00:55:05.498Z,42.93
2022-08-28T00:58:05.192Z,42.98
2022-08-28T01:00:51.364Z,42.96
2022-08-28T01:03:37.859Z,42.93
2022-08-28T01:06:24.189Z,42.96
2022-08-28T01:09:12.280Z,43.03
2022-08-28T01:12:03.467Z,42.85
2022-08-28T01:14:52.317Z,43.00
2022-08-28T01:17:43.084Z,42.90
2022-08-28T01:20:34.222Z,43.01
2022-08-28T01:23:44.694Z,43.37
2022-08-28T01:26:31.512Z,43.26
2022-08-28T01:29:17.694Z,43.19
2022-08-28T01:32:05.315Z,43.28
2022-08-28T01:34:52.864Z,43.31
2022-08-28T01:37:38.741Z,43.40
2022-08-28T01:40:33.299Z,43.51
2022-08-28T01:43:22.231Z,43.55
2022-08-28T01:46:09.978Z,43.58
2022-08-28T01:48:55.767Z,43.53
2022-08-28T01:51:42.109Z,43.63
2022-08-28T01:54:28.877Z,43.64
2022-08-28T01:57:14.940Z,43.73
2022-08-28T02:00:04.283Z,43.73
2022-08-28T02:02:59.910Z,43.80
2022-08-28T02:05:46.946Z,43.79
2022-08-28T02:08:32.906Z,44.01
2022-08-28T02:11:18.939Z,43.93
2022-08-28T02:14:05.326Z,44.00
2022-08-28T02:16:51.294Z,44.11
2022-08-28T02:19:37.697Z,44.16
2022-08-28T02:22:24.145Z,44.28
2022-08-28T02:25:10.673Z,44.33
2022-08-28T02:27:57.074Z,44.33
2022-08-28T02:30:43.398Z,44.33
2022-08-28T02:33:29.569Z,44.33
2022-08-28T02:36:17.004Z,44.36
2022-08-28T02:39:03.050Z,44.34
2022-08-28T02:41:48.756Z,44.59
2022-08-28T02:44:35.546Z,44.50
2022-08-28T02:47:21.749Z,44.75
2022-08-28T02:50:08.959Z,44.58
2022-08-28T02:52:55.203Z,44.76
2022-08-28T02:55:41.441Z,44.60
2022-08-28T02:58:27.614Z,44.76
2022-08-28T03:01:14.288Z,44.80
2022-08-28T03:04:03.262Z,45.02
2022-08-28T03:06:50.645Z,45.01
2022-08-28T03:09:36.617Z,45.19
2022-08-28T03:12:27.860Z,45.29
2022-08-28T03:15:14.379Z,45.57
2022-08-28T03:18:00.650Z,45.50
2022-08-28T03:20:47.311Z,45.48
2022-08-28T03:23:33.441Z,45.89
2022-08-28T03:26:20.903Z,45.82
2022-08-28T03:29:06.789Z,45.96
2022-08-28T03:31:52.967Z,46.18
2022-08-28T03:34:38.945Z,46.12
2022-08-28T03:37:31.117Z,46.11
2022-08-28T03:40:17.640Z,46.14
2022-08-28T03:43:03.625Z,46.00
2022-08-28T03:46:00.229Z,46.01
2022-08-28T03:48:47.379Z,45.90
2022-08-28T03:51:34.484Z,45.96
2022-08-28T03:54:20.391Z,45.96
2022-08-28T03:57:06.553Z,45.99
2022-08-28T03:59:53.695Z,45.77
2022-08-28T04:02:43.860Z,45.70
2022-08-28T04:05:31.793Z,45.80
2022-08-28T04:08:19.042Z,45.71
2022-08-28T04:11:05.576Z,45.62
2022-08-28T04:13:57.222Z,45.57
2022-08-28T04:16:43.221Z,45.71
2022-08-28T04:19:40.391Z,45.76
2022-08-28T04:22:35.901Z,45.84
2022-08-28T04:25:26.034Z,45.80
2022-08-28T04:28:12.125Z,45.82
2022-08-28T04:30:58.404Z,46.06
2022-08-28T04:33:44.166Z,46.03
2022-08-28T04:36:30.316Z,46.00
2022-08-28T04:39:16.215Z,46.11
2022-08-28T04:42:02.005Z,46.12
2022-08-28T04:44:48.061Z,46.21
2022-08-28T04:47:38.016Z,46.13
2022-08-28T04:50:24.184Z,46.00
2022-08-28T04:53:10.231Z,46.10
2022-08-28T04:55:59.135Z,46.21
2022-08-28T04:58:45.612Z,46.17
2022-08-28T05:01:31.946Z,46.15
2022-08-28T05:04:19.696Z,46.17
2022-08-28T05:07:05.542Z,46.27
2022-08-28T05:09:54.872Z,46.52
2022-08-28T05:12:41.047Z,46.37
2022-08-28T05:15:26.921Z,46.60
2022-08-28T05:18:14.425Z,46.46
2022-08-28T05:21:01.900Z,46.58
2022-08-28T05:23:49.051Z,46.42
2022-08-28T05:26:36.455Z,46.55
2022-08-28T05:29:26.375Z,46.53
2022-08-28T05:32:12.098Z,46.53
2022-08-28T05:34:57.857Z,46.46
2022-08-28T05:37:43.642Z,46.44
2022-08-28T05:40:29.605Z,46.30
2022-08-28T05:43:17.338Z,46.47
2022-08-28T05:46:10.566Z,46.52
2022-08-28T05:49:01.043Z,46.34
2022-08-28T05:51:48.477Z,46.39
2022-08-28T05:54:34.315Z,46.39
2022-08-28T05:57:20.405Z,46.28
2022-08-28T06:00:10.269Z,46.59
2022-08-28T06:02:56.432Z,46.36
2022-08-28T06:05:44.063Z,46.38
2022-08-28T06:08:32.211Z,46.35
2022-08-28T06:11:22.450Z,46.54
2022-08-28T06:14:15.700Z,46.61
2022-08-28T06:17:02.778Z,46.32
2022-08-28T06:19:51.799Z,46.38
2022-08-28T06:22:38.507Z,46.45
2022-08-28T06:25:24.702Z,46.46
2022-08-28T06:28:10.681Z,46.46
2022-08-28T06:31:23.373Z,46.42
2022-08-28T06:34:11.799Z,46.25
2022-08-28T06:36:57.923Z,46.09
2022-08-28T06:39:44.371Z,46.14
2022-08-28T06:42:31.421Z,46.04
2022-08-28T06:45:17.350Z,46.09
2022-08-28T06:48:03.948Z,46.01
2022-08-28T06:50:52.063Z,45.80
2022-08-28T06:53:40.178Z,45.88
2022-08-28T06:56:29.863Z,45.85
2022-08-28T06:59:15.924Z,45.89
2022-08-28T07:02:02.751Z,45.87
2022-08-28T07:04:53.512Z,45.80
2022-08-28T07:07:39.607Z,45.80
2022-08-28T07:10:28.712Z,45.78
2022-08-28T07:13:14.820Z,45.63
2022-08-28T07:16:01.170Z,45.57
2022-08-28T07:18:48.633Z,45.71
2022-08-28T07:21:39.087Z,45.54
2022-08-28T07:24:25.498Z,45.49
2022-08-28T07:27:16.968Z,45.31
2022-08-28T07:30:10.124Z,45.36
2022-08-28T07:32:56.199Z,45.36
2022-08-28T07:35:44.218Z,45.28
2022-08-28T07:38:30.313Z,45.18
2022-08-28T07:41:30.860Z,45.28
2022-08-28T07:44:41.525Z,45.07
2022-08-28T07:47:31.684Z,44.91
2022-08-28T07:50:18.107Z,45.08
2022-08-28T07:53:04.535Z,45.03
2022-08-28T07:55:51.597Z,45.13
2022-08-28T07:58:38.839Z,44.82
2022-08-28T08:01:25.905Z,44.74
2022-08-28T08:04:13.498Z,44.61
2022-08-28T08:06:59.455Z,44.75
2022-08-28T08:09:46.723Z,44.53
2022-08-28T08:12:34.536Z,44.51
2022-08-28T08:15:21.154Z,44.70
2022-08-28T08:18:08.494Z,44.29
2022-08-28T08:20:54.640Z,44.28
2022-08-28T08:23:42.082Z,44.22
2022-08-28T08:26:31.576Z,44.25
2022-08-28T08:29:17.648Z,43.98
2022-08-28T08:32:07.921Z,44.02
2022-08-28T08:34:58.540Z,44.07
2022-08-28T08:37:44.882Z,43.96
2022-08-28T08:40:31.272Z,43.75
2022-08-28T08:43:18.662Z,43.94
2022-08-28T08:46:04.690Z,43.72
2022-08-28T08:48:51.081Z,43.38
2022-08-28T08:51:43.313Z,43.59
2022-08-28T08:54:31.386Z,43.23
2022-08-28T08:57:21.691Z,43.33
2022-08-28T09:00:15.066Z,43.12
2022-08-28T09:03:15.552Z,43.16
2022-08-28T09:06:04.298Z,42.81
2022-08-28T09:08:54.744Z,42.65
2022-08-28T09:11:46.584Z,42.72
2022-08-28T09:15:09.849Z,42.83
2022-08-28T09:18:22.566Z,42.58
2022-08-28T09:21:08.721Z,42.24
2022-08-28T09:23:55.311Z,42.14
2022-08-28T09:26:41.684Z,42.12
2022-08-28T09:30:10.452Z,42.04
2022-08-28T09:33:01.274Z,41.88
2022-08-28T09:35:47.631Z,41.85
2022-08-28T09:38:33.883Z,41.42
2022-08-28T09:41:38.439Z,41.52
2022-08-28T09:44:25.370Z,41.43
2022-08-28T09:47:59.807Z,41.54
2022-08-28T09:51:03.748Z,41.04
2022-08-28T09:53:52.634Z,41.22
2022-08-28T09:56:41.200Z,41.16
2022-08-28T09:59:29.032Z,40.96
2022-08-28T10:02:17.877Z,40.96
2022-08-28T10:05:10.015Z,40.87
2022-08-28T10:08:04.515Z,40.76
2022-08-28T10:11:02.449Z,40.29
2022-08-28T10:14:20.440Z,40.35
2022-08-28T10:17:13.043Z,40.10
2022-08-28T10:20:25.019Z,39.97
2022-08-28T10:23:25.012Z,40.03
2022-08-28T10:26:34.896Z,39.84
2022-08-28T10:29:31.723Z,39.51
2022-08-28T10:32:40.231Z,39.84
2022-08-28T10:35:44.496Z,39.57
2022-08-28T10:39:04.982Z,39.42
2022-08-28T10:41:56.867Z,39.11
2022-08-28T10:45:06.923Z,38.84
2022-08-28T10:47:58.166Z,38.76
2022-08-28T10:50:58.119Z,38.50
2022-08-28T10:53:56.208Z,38.63
2022-08-28T10:56:55.980Z,38.46
2022-08-28T12:20:41.448Z,32.25
2022-08-28T12:23:33.220Z,31.82
2022-08-28T12:26:44.959Z,31.84
2022-08-28T12:29:47.525Z,31.75
2022-08-28T12:32:48.798Z,31.13
2022-08-28T12:35:34.800Z,31.15
2022-08-28T12:38:22.205Z,30.97
2022-08-28T12:41:20.885Z,30.58
2022-08-28T12:44:12.750Z,30.32
2022-08-28T12:46:59.413Z,30.17
2022-08-28T12:49:45.166Z,29.71
2022-08-28T12:52:32.872Z,29.08
2022-08-28T12:55:24.188Z,29.15
2022-08-28T12:58:34.726Z,28.80
2022-08-28T13:01:39.002Z,28.48
2022-08-28T13:04:55.548Z,28.31
2022-08-28T13:07:50.777Z,28.15
2022-08-28T13:10:41.816Z,27.85
2022-08-28T13:13:33.552Z,27.74
2022-08-28T13:16:36.542Z,27.18
2022-08-28T13:19:29.542Z,27.28
2022-08-28T13:22:35.811Z,26.77
2022-08-28T13:25:24.920Z,26.64
2022-08-28T13:28:17.771Z,26.53
2022-08-28T13:31:03.898Z,26.53
2022-08-28T13:34:24.685Z,25.46
2022-08-28T13:37:14.750Z,26.32
2022-08-28T13:40:15.970Z,26.13
2022-08-28T13:43:11.730Z,25.66
2022-08-28T13:45:58.128Z,25.76
2022-08-28T13:48:43.942Z,25.35
2022-08-28T13:51:29.804Z,25.39
2022-08-28T13:54:16.249Z,25.67
2022-08-28T13:57:02.944Z,25.13
2022-08-28T13:59:52.381Z,24.95
2022-08-28T14:03:13.052Z,25.53
2022-08-28T14:05:59.985Z,25.18
2022-08-28T14:08:47.178Z,25.11
2022-08-28T14:11:34.390Z,24.68
2022-08-28T14:14:20.725Z,24.65
2022-08-28T14:17:08.099Z,24.67
2022-08-28T14:19:57.732Z,24.60
2022-08-28T14:22:43.942Z,24.43
2022-08-28T14:25:31.738Z,24.64
2022-08-28T14:28:20.165Z,24.68
2022-08-28T14:31:11.151Z,24.53
2022-08-28T14:33:58.776Z,24.61
2022-08-28T14:36:45.946Z,24.23
2022-08-28T14:39:32.374Z,24.30
2022-08-28T14:42:19.741Z,23.87
2022-08-28T14:45:06.867Z,23.93
2022-08-28T14:47:53.306Z,23.92
2022-08-28T14:50:44.057Z,23.99
2022-08-28T14:53:30.300Z,24.07
2022-08-28T14:56:16.411Z,24.09
2022-08-28T14:59:04.064Z,23.98
2022-08-28T15:01:51.250Z,24.01
2022-08-28T15:04:38.244Z,23.55
2022-08-28T15:07:24.517Z,23.96
2022-08-28T15:10:13.798Z,24.09
2022-08-28T15:13:00.284Z,24.29
2022-08-28T15:15:46.700Z,24.55
2022-08-28T15:18:34.502Z,24.32
2022-08-28T15:21:26.671Z,24.50
2022-08-28T15:24:15.757Z,24.86
2022-08-28T15:27:03.633Z,24.95
2022-08-28T15:29:49.900Z,25.09
2022-08-28T15:32:36.138Z,25.07
2022-08-28T15:35:22.269Z,24.96
2022-08-28T15:38:08.328Z,25.13
2022-08-28T15:41:17.503Z,25.05
2022-08-28T15:44:03.379Z,25.23
2022-08-28T15:47:01.361Z,25.67
2022-08-28T15:49:56.528Z,25.76
2022-08-28T15:52:43.114Z,25.97
2022-08-28T15:55:30.263Z,26.09
2022-08-28T15:58:16.413Z,26.40
2022-08-28T16:01:04.120Z,26.70
2022-08-28T16:03:49.932Z,26.50
2022-08-28T16:06:36.230Z,26.81
2022-08-28T16:09:22.395Z,26.74
2022-08-28T16:12:08.539Z,26.90
2022-08-28T16:14:54.687Z,27.24
2022-08-28T16:17:40.771Z,27.28
2022-08-28T16:20:27.997Z,27.71
2022-08-28T16:23:14.383Z,27.93
2022-08-28T16:26:00.643Z,28.07
2022-08-28T16:28:46.486Z,28.06
2022-08-28T16:31:34.406Z,28.18
2022-08-28T16:34:20.371Z,28.52
2022-08-28T16:37:07.978Z,28.64
2022-08-28T16:39:56.117Z,28.73
2022-08-28T16:43:01.110Z,28.92
2022-08-28T16:45:47.335Z,28.93
2022-08-28T16:48:33.265Z,29.14
2022-08-28T16:51:20.372Z,29.36
2022-08-28T16:54:07.127Z,29.29
2022-08-28T16:56:53.460Z,29.39
2022-08-28T16:59:44.706Z,29.58
2022-08-28T17:02:41.307Z,29.70
2022-08-28T17:05:27.731Z,29.59
2022-08-28T17:08:14.676Z,29.92
2022-08-28T17:11:01.581Z,29.98
2022-08-28T17:13:50.003Z,30.22
2022-08-28T17:16:36.177Z,30.03
2022-08-28T17:19:24.859Z,30.25
2022-08-28T17:22:29.858Z,30.34
2022-08-28T17:25:16.165Z,30.22
2022-08-28T17:28:03.054Z,30.59
2022-08-28T17:30:49.803Z,30.52
2022-08-28T17:33:40.724Z,30.83
2022-08-28T17:36:33.597Z,30.72
2022-08-28T17:39:21.493Z,31.01
2022-08-28T17:42:07.584Z,31.01
2022-08-28T17:44:53.802Z,31.07
2022-08-28T17:47:40.120Z,31.17
2022-08-28T17:50:26.807Z,31.25
2022-08-28T17:53:13.117Z,31.24
2022-08-28T17:55:59.370Z,31.48
2022-08-28T17:58:45.653Z,31.36
2022-08-28T18:01:31.847Z,31.57
2022-08-28T18:04:23.930Z,31.68
2022-08-28T18:07:12.542Z,31.75
2022-08-28T18:10:00.138Z,31.70
2022-08-28T18:12:47.384Z,31.88
2022-08-28T18:15:34.039Z,32.21
2022-08-28T18:18:34.413Z,32.25
2022-08-28T18:21:23.700Z,32.26
2022-08-28T18:24:13.243Z,32.43
2022-08-28T18:26:59.429Z,32.41
2022-08-28T18:29:46.633Z,32.69
2022-08-28T18:32:35.522Z,32.75
2022-08-28T18:35:27.490Z,32.66
2022-08-28T18:38:35.902Z,33.00
2022-08-28T18:41:26.934Z,32.94
2022-08-28T18:44:31.736Z,33.15
2022-08-28T18:47:18.188Z,33.31
2022-08-28T18:50:05.994Z,33.27
2022-08-28T18:52:53.341Z,33.42
2022-08-28T18:55:39.765Z,33.53
2022-08-28T18:58:27.589Z,33.88
2022-08-28T20:12:01.117Z,37.85
2022-08-28T20:14:47.572Z,37.74
2022-08-28T20:17:33.677Z,37.74
2022-08-28T20:20:30.832Z,37.37
2022-08-28T20:23:18.149Z,37.68
2022-08-28T20:26:04.498Z,37.28
2022-08-28T20:28:52.692Z,37.42
2022-08-28T20:31:40.813Z,37.25
2022-08-28T20:34:34.338Z,37.73
2022-08-28T20:37:20.270Z,37.49
2022-08-28T20:40:09.922Z,37.42
2022-08-28T20:42:57.171Z,37.55
2022-08-28T20:45:43.366Z,37.51
2022-08-28T20:48:29.842Z,37.49
2022-08-28T20:51:15.801Z,37.92
2022-08-28T20:54:01.938Z,37.77
2022-08-28T20:56:48.734Z,38.03
2022-08-28T20:59:39.710Z,37.98
2022-08-28T21:02:31.362Z,38.15
2022-08-28T21:05:19.838Z,38.25
2022-08-28T21:08:12.372Z,37.96
2022-08-28T21:10:59.719Z,38.05
2022-08-28T21:13:45.538Z,38.00
2022-08-28T21:16:43.977Z,38.28
2022-08-28T21:19:30.247Z,37.84
2022-08-28T21:22:54.039Z,38.34
2022-08-28T21:25:41.248Z,38.10
2022-08-28T21:28:27.164Z,38.25
2022-08-28T21:31:30.834Z,38.67
2022-08-28T21:34:18.989Z,38.18
2022-08-28T21:37:06.430Z,38.50
2022-08-28T21:39:53.927Z,38.32
2022-08-28T21:42:43.138Z,38.40
2022-08-28T21:45:29.071Z,38.60
2022-08-28T21:48:15.118Z,38.76
2022-08-28T21:51:01.305Z,38.76
2022-08-28T21:53:47.365Z,38.92
2022-08-28T21:56:33.514Z,38.74
2022-08-28T21:59:19.774Z,38.93
2022-08-28T22:02:07.484Z,38.80
2022-08-28T22:04:53.880Z,38.86
2022-08-28T22:07:40.481Z,39.22
2022-08-28T22:10:26.380Z,38.84
2022-08-28T22:13:13.709Z,38.85
2022-08-28T22:16:00.011Z,39.30
2022-08-28T22:18:46.176Z,39.08
2022-08-28T22:21:59.115Z,39.26
2022-08-28T22:24:45.197Z,39.32
2022-08-28T22:27:34.785Z,39.11
2022-08-28T22:30:21.202Z,39.12
2022-08-28T22:33:07.230Z,39.11
2022-08-28T22:35:53.182Z,39.13
2022-08-28T22:38:40.114Z,39.37
2022-08-28T22:41:26.258Z,39.39
2022-08-28T22:44:12.147Z,39.14
2022-08-28T22:46:58.279Z,39.37
2022-08-28T22:49:44.312Z,39.45
2022-08-28T22:52:31.118Z,39.37
2022-08-28T22:55:55.126Z,39.82
2022-08-28T22:58:41.720Z,39.68
2022-08-28T23:01:28.506Z,39.62
2022-08-28T23:04:14.668Z,39.55
2022-08-28T23:07:00.573Z,39.53
2022-08-28T23:09:46.406Z,39.73
2022-08-28T23:12:34.419Z,40.07
2022-08-28T23:15:21.929Z,40.45
2022-08-28T23:18:08.613Z,40.21
2022-08-28T23:20:55.256Z,40.10
2022-08-28T23:23:41.957Z,40.31
2022-08-28T23:26:27.985Z,40.34
2022-08-28T23:29:14.278Z,40.57
2022-08-28T23:32:00.487Z,40.63
2022-08-28T23:34:47.235Z,40.52
2022-08-28T23:37:33.397Z,40.65
2022-08-28T23:40:22.534Z,40.68
2022-08-28T23:43:08.662Z,40.78
2022-08-28T23:45:55.454Z,40.76
2022-08-28T23:48:41.796Z,40.51
2022-08-28T23:51:27.902Z,40.68
2022-08-28T23:54:13.966Z,40.72
2022-08-28T23:57:01.583Z,40.79
2022-08-28T23:59:48.073Z,40.92
